Kevin Boyata

Jefe de ojeadores - KV Oostende
30 Ene 2027
Sábado
Continuar

Personalidad

Adaptabilidad (16) Ambición (15) Controversia (17) Lealtad (1) Presión (19) Profesionalismo (17) Deportividad (16) Temperamento (17)

Perfil

Estilo de dirección Democrático
Licencia Continental C
Determinación 9
Gestión de personas 10
Motivación 11
Disciplina 12
Satisfacción laboral
58%
Fatiga
0%
Cargo Jefe de ojeadores
Salario 54.0K p/s
Contrato 14.03.2029

Rendimiento

Comportamiento Bueno
Efectividad del entrenamiento
24%
Desarrollo de jugadores
60%
Prevención de lesiones
45%
Implementación táctica
40%

Eventos recientes

Asistió a una reunión de captación ahora
Recomendó un objetivo de fichaje ahora
Recomendó un objetivo de fichaje ahora
Recomendó un objetivo de fichaje ahora
Recomendó un objetivo de fichaje ahora
Evaluó a un jugador 7d atrás
Presentó un informe a la directiva 7d atrás
Cursando desarrollo profesional 7d atrás

Actualmente siguiendo

88
Jugador Club Estado Habilidad Confianza Observado Última observación Último voto
Jesse Akila Asante Kotoko Activo 106 / 101 40% 1 26.01.2027 -
Rafiu Durosinmi Racing Genk Activo 126 / 129 40% 1 26.01.2027 -
George Hirst Stoke City Activo 133 / 139 40% 1 26.01.2027 -
Morgan Gibbs-White Nottingham Forest Activo 162 / 150 40% 1 19.01.2027 -
Othmane Maamma Watford Activo 130 / 131 40% 1 19.01.2027 -
Tariq Lamptey Queens Park Rangers Activo 127 / 131 40% 2 11.01.2027 -
Patrick Berg Borussia Mönchengladbach Negociando 141 / 141 62% 1 11.01.2027 Aprobar
Siebe Schrijvers OH Leuven Activo 121 / 116 69% 1 11.01.2027 Aprobar
Kyriani Sabbe Club Brugge Perdido 126 / 134 40% 1 11.01.2027 -
Josh Nisbet Roda Negociando 113 / 101 40% 1 11.01.2027 -
Tyrell Malacia Derby County Negociando 145 / 139 40% 2 07.01.2027 -
Ryan Sessegnon Fulham Activo 150 / 141 40% 3 07.01.2027 -
Jacob Greaves Ipswich Town Activo 141 / 135 40% 1 07.01.2027 -
Kevin Amaro Racing Genk Activo 118 / 119 40% 4 06.01.2027 -
Doğucan Haspolat Westerlo Negociando 132 / 119 40% 2 06.01.2027 -
Noah Sadiki Sunderland Activo 146 / 142 40% 2 06.01.2027 -
Lamine Cissé Peterborough United Activo 114 / 130 40% 3 06.01.2027 -
Jackson Muleka Konyaspor Activo 131 / 119 40% 1 06.01.2027 -
Aune Heggebø West Bromwich Albion Activo 130 / 124 40% 1 06.01.2027 -
Marezi Portsmouth Activo 124 / 130 40% 1 04.01.2027 -
Joaquín Panichelli RC Strasbourg Activo 149 / 133 40% 1 02.01.2027 -
Luis Vázquez Birmingham Activo 130 / 133 40% 1 02.01.2027 -
Myron van Brederode KV Mechelen Perdido 112 / 124 40% 1 02.01.2027 -
Tiago Araújo KAA Gent Activo 113 / 127 40% 5 01.01.2027 -
Thulani Billiat Utrecht Negociando 136 / 136 61% 1 01.01.2027 Aprobar
Amar Memić Juventude Negociando 127 / 128 62% 1 01.01.2027 Aprobar
Mao Hosoya Manchester City Negociando 134 / 135 67% 1 01.01.2027 Aprobar
Dragos Man Astra Perdido 123 / 123 66% 1 01.01.2027 -
Léandre Kuavita Waasland-Beveren Activo 118 / 115 40% 3 31.12.2026 -
Siebe Van der Heyden KAA Gent Activo 119 / 118 40% 1 31.12.2026 -
Dimitri Lavalée Standard Liege Activo 131 / 129 40% 1 31.12.2026 -
Tristan Degreef Anderlecht Activo 120 / 121 40% 2 30.12.2026 -
Aljoša Matko Ujpest Activo 125 / 130 40% 1 30.12.2026 -
Emile Smith Rowe Fulham Activo 146 / 152 40% 2 28.12.2026 -
Ethan Mbappé LOSC Lille Activo 134 / 134 40% 1 28.12.2026 -
Gonzalo Plata Dinamo Moscow Activo 144 / 142 40% 1 28.12.2026 -
Freddie Potts Club Brugge Activo 122 / 128 40% 1 27.12.2026 -
Jan Virgili Club Brugge Activo 132 / 141 40% 1 27.12.2026 -
Malick Fofana Sunderland Activo 136 / 139 40% 1 24.12.2026 -
Derensili Sanches Fernandes Huddersfield Town Activo 122 / 120 40% 1 24.12.2026 -
Roger François Udinese Activo 142 / 151 40% 3 22.12.2026 -
Mitchel Bakker Rostov Activo 119 / 116 40% 5 22.12.2026 -
Ethan Galbraith Swansea City Activo 132 / 126 40% 2 22.12.2026 -
Ilay Camara Anderlecht Activo 134 / 139 40% 4 21.12.2026 -
Mike Trésor Burnley Activo 126 / 136 40% 3 20.12.2026 -
Ousmane Camara Angers SCO Activo 131 / 128 40% 1 20.12.2026 -
Welington Southampton Activo 122 / 125 40% 1 20.12.2026 -
Noah Saviolo Trabzonspor Activo 120 / 118 40% 1 20.12.2026 -
El Hadji Malick Diouf Brentford Activo 133 / 149 40% 2 16.12.2026 -
Aiham Ousou Charleroi Activo 136 / 133 40% 1 16.12.2026 -
Brian De Keersmaecker Oxford United Activo 115 / 125 40% 3 15.12.2026 -
Thibaud Verlinden OH Leuven Perdido 131 / 124 40% 1 15.12.2026 Más información
Bosun Lawal Stoke City Activo 132 / 130 40% 2 11.12.2026 -
Casper Widell Excelsior Activo 118 / 108 40% 1 11.12.2026 -
Josh Tymon Swansea City Activo 116 / 128 40% 1 10.12.2026 -
Tim Iroegbunam Hull City Negociando 138 / 138 40% 2 09.12.2026 -
Florentino Luís Ipswich Town Activo 148 / 132 40% 1 09.12.2026 -
José Marsà KV Mechelen Activo 133 / 120 40% 1 09.12.2026 -
Illaijh de Ruijter ADO Den Haag Activo 111 / 121 40% 1 08.12.2026 -
Botond Balogh Westerlo Activo 122 / 115 40% 1 07.12.2026 -
Arthur Piedfort AJ Auxerre Activo 113 / 121 40% 2 19.11.2026 -
Conor Bradley Liverpool Activo 155 / 155 40% 1 19.11.2026 -
Ibrahim Karamoko Standard Liege Activo 121 / 118 40% 1 18.11.2026 -
Jakob Kiilerich Zulte Waregem Activo 109 / 114 40% 1 18.11.2026 -
Morgan Whittaker Middlesbrough Activo 139 / 124 40% 1 17.11.2026 -
Sorba Thomas Stoke City Activo 127 / 121 40% 1 17.11.2026 -
Félix Lemaréchal Club Brugge Activo 143 / 136 40% 1 16.11.2026 -
Daan Heymans Racing Genk Activo 129 / 126 40% 1 16.11.2026 -
Neco Williams Nottingham Forest Activo 145 / 136 40% 1 13.11.2026 -
Abdelkahar Kadri KAA Gent Activo 121 / 123 40% 1 13.11.2026 -
Diogo Dalot Manchester United Activo 141 / 145 40% 1 11.11.2026 -
Leonardo Lopes KAA Gent Activo 109 / 113 40% 1 11.11.2026 -
Alex Luna Instituto Activo 142 / 140 40% 1 11.11.2026 -
Sieben Dewaele Waasland-Beveren Activo 119 / 118 40% 1 08.11.2026 -
Oliver Skipp Leicester City Activo 130 / 128 40% 1 07.11.2026 -
Bobby Thomas Coventry City Activo 137 / 129 40% 1 07.11.2026 -
Salis Abdul Samed OGC Nice Activo 119 / 117 40% 1 05.11.2026 -
Milan van Ewijk Coventry City Activo 134 / 137 40% 1 03.11.2026 -
Mardochée Nzita Charleroi Activo 113 / 122 40% 1 02.11.2026 -
Luke McNally Bristol City Activo 125 / 128 40% 1 02.11.2026 -
Shuto Nakano Sanfrecce Hiroshima Activo 137 / 133 40% 1 07.10.2026 -
Łukasz Łakomy OH Leuven Activo 119 / 116 40% 1 10.09.2026 -
Noah Lahmadi Toulouse FC Activo 103 / 108 40% 1 10.09.2026 -
Gino Caoki Nimes Activo 90 / 93 40% 1 10.09.2026 -
Diego Luna Real Salt Lake Activo 129 / 128 40% 1 10.09.2026 -
Ewoud Pletinckx OH Leuven Activo 126 / 126 40% 1 07.09.2026 -
Alexey Batrakov Galatasaray Activo 139 / 145 40% 1 24.08.2026 -
Arno Verschueren Waasland-Beveren Activo 123 / 132 40% 1 03.08.2026 -